sensor_id;sensor_type;location;lat;lon;timestamp;P1;durP1;ratioP1;P2;durP2;ratioP2
23400;SDS011;11873;49.300;8.920;2023-01-01T00:01:39;35.00;;;22.87;;
23400;SDS011;11873;49.300;8.920;2023-01-01T00:06:40;36.97;;;26.27;;
23400;SDS011;11873;49.300;8.920;2023-01-01T00:11:40;40.80;;;28.90;;
23400;SDS011;11873;49.300;8.920;2023-01-01T00:16:40;48.80;;;33.47;;
23400;SDS011;11873;49.300;8.920;2023-01-01T00:21:41;49.97;;;35.33;;
23400;SDS011;11873;49.300;8.920;2023-01-01T00:26:41;60.23;;;41.80;;
23400;SDS011;11873;49.300;8.920;2023-01-01T00:31:41;67.07;;;47.97;;
23400;SDS011;11873;49.300;8.920;2023-01-01T00:36:41;65.47;;;46.87;;
23400;SDS011;11873;49.300;8.920;2023-01-01T00:41:41;61.23;;;47.13;;
23400;SDS011;11873;49.300;8.920;2023-01-01T00:46:41;68.80;;;47.63;;
23400;SDS011;11873;49.300;8.920;2023-01-01T00:51:45;74.83;;;54.27;;
23400;SDS011;11873;49.300;8.920;2023-01-01T00:56:45;66.47;;;47.30;;
23400;SDS011;11873;49.300;8.920;2023-01-01T01:01:46;76.00;;;56.37;;
23400;SDS011;11873;49.300;8.920;2023-01-01T01:06:46;71.83;;;55.37;;
23400;SDS011;11873;49.300;8.920;2023-01-01T01:11:46;80.77;;;56.20;;
23400;SDS011;11873;49.300;8.920;2023-01-01T01:16:48;81.30;;;58.13;;
23400;SDS011;11873;49.300;8.920;2023-01-01T01:21:48;69.93;;;52.30;;
23400;SDS011;11873;49.300;8.920;2023-01-01T01:26:49;64.67;;;49.83;;
23400;SDS011;11873;49.300;8.920;2023-01-01T01:31:49;69.27;;;51.93;;
23400;SDS011;11873;49.300;8.920;2023-01-01T01:36:49;69.83;;;52.47;;
23400;SDS011;11873;49.300;8.920;2023-01-01T01:41:49;72.87;;;54.40;;
23400;SDS011;11873;49.300;8.920;2023-01-01T01:46:50;74.20;;;54.03;;
23400;SDS011;11873;49.300;8.920;2023-01-01T01:51:50;67.90;;;50.97;;
23400;SDS011;11873;49.300;8.920;2023-01-01T02:01:53;70.93;;;51.77;;
23400;SDS011;11873;49.300;8.920;2023-01-01T02:06:54;71.67;;;55.67;;
23400;SDS011;11873;49.300;8.920;2023-01-01T02:11:54;73.03;;;53.43;;
23400;SDS011;11873;49.300;8.920;2023-01-01T02:16:55;64.40;;;50.97;;
23400;SDS011;11873;49.300;8.920;2023-01-01T02:22:07;66.33;;;49.43;;
23400;SDS011;11873;49.300;8.920;2023-01-01T02:32:33;59.13;;;48.03;;
23400;SDS011;11873;49.300;8.920;2023-01-01T02:37:34;64.70;;;47.93;;
23400;SDS011;11873;49.300;8.920;2023-01-01T02:42:34;65.17;;;48.90;;
23400;SDS011;11873;49.300;8.920;2023-01-01T02:47:35;66.97;;;49.67;;
23400;SDS011;11873;49.300;8.920;2023-01-01T02:52:43;58.07;;;46.00;;
23400;SDS011;11873;49.300;8.920;2023-01-01T02:57:52;60.63;;;48.00;;
23400;SDS011;11873;49.300;8.920;2023-01-01T03:03:14;52.03;;;39.57;;
23400;SDS011;11873;49.300;8.920;2023-01-01T03:08:17;58.13;;;42.00;;
23400;SDS011;11873;49.300;8.920;2023-01-01T03:13:21;48.53;;;38.47;;
23400;SDS011;11873;49.300;8.920;2023-01-01T03:18:31;55.10;;;41.90;;
23400;SDS011;11873;49.300;8.920;2023-01-01T03:23:36;48.70;;;42.13;;
23400;SDS011;11873;49.300;8.920;2023-01-01T03:28:45;57.33;;;41.33;;
23400;SDS011;11873;49.300;8.920;2023-01-01T03:33:46;50.77;;;39.23;;
23400;SDS011;11873;49.300;8.920;2023-01-01T03:38:49;49.23;;;38.83;;
23400;SDS011;11873;49.300;8.920;2023-01-01T03:49:01;47.47;;;36.03;;
23400;SDS011;11873;49.300;8.920;2023-01-01T03:54:05;48.10;;;37.67;;
23400;SDS011;11873;49.300;8.920;2023-01-01T04:04:09;46.03;;;37.70;;
23400;SDS011;11873;49.300;8.920;2023-01-01T04:09:11;44.23;;;37.60;;
23400;SDS011;11873;49.300;8.920;2023-01-01T04:14:24;49.27;;;38.07;;
23400;SDS011;11873;49.300;8.920;2023-01-01T04:19:24;41.37;;;32.27;;
23400;SDS011;11873;49.300;8.920;2023-01-01T04:24:27;41.03;;;34.77;;
23400;SDS011;11873;49.300;8.920;2023-01-01T04:29:27;45.77;;;35.03;;
23400;SDS011;11873;49.300;8.920;2023-01-01T04:34:27;39.03;;;33.70;;
23400;SDS011;11873;49.300;8.920;2023-01-01T04:39:27;35.03;;;31.23;;
23400;SDS011;11873;49.300;8.920;2023-01-01T04:44:28;38.70;;;29.67;;
23400;SDS011;11873;49.300;8.920;2023-01-01T04:49:28;34.60;;;29.57;;
23400;SDS011;11873;49.300;8.920;2023-01-01T04:54:28;39.03;;;28.87;;
23400;SDS011;11873;49.300;8.920;2023-01-01T04:59:29;35.57;;;30.07;;
23400;SDS011;11873;49.300;8.920;2023-01-01T05:04:29;37.33;;;29.50;;
23400;SDS011;11873;49.300;8.920;2023-01-01T05:09:29;35.63;;;28.70;;
23400;SDS011;11873;49.300;8.920;2023-01-01T05:14:29;34.60;;;29.47;;
23400;SDS011;11873;49.300;8.920;2023-01-01T05:19:29;29.37;;;26.17;;
23400;SDS011;11873;49.300;8.920;2023-01-01T05:24:29;31.23;;;27.07;;
23400;SDS011;11873;49.300;8.920;2023-01-01T05:29:30;31.80;;;25.37;;
23400;SDS011;11873;49.300;8.920;2023-01-01T05:34:30;29.83;;;23.93;;
23400;SDS011;11873;49.300;8.920;2023-01-01T05:39:30;26.87;;;23.97;;
23400;SDS011;11873;49.300;8.920;2023-01-01T05:44:30;26.70;;;23.80;;
23400;SDS011;11873;49.300;8.920;2023-01-01T05:49:30;31.73;;;25.33;;
23400;SDS011;11873;49.300;8.920;2023-01-01T05:54:30;30.17;;;25.00;;
23400;SDS011;11873;49.300;8.920;2023-01-01T05:59:31;28.80;;;24.60;;
23400;SDS011;11873;49.300;8.920;2023-01-01T06:04:31;29.30;;;23.83;;
23400;SDS011;11873;49.300;8.920;2023-01-01T06:09:31;29.67;;;23.43;;
23400;SDS011;11873;49.300;8.920;2023-01-01T06:14:31;30.40;;;24.03;;
23400;SDS011;11873;49.300;8.920;2023-01-01T06:19:31;28.20;;;23.87;;
23400;SDS011;11873;49.300;8.920;2023-01-01T06:24:32;27.07;;;21.80;;
23400;SDS011;11873;49.300;8.920;2023-01-01T06:29:32;28.73;;;23.77;;
23400;SDS011;11873;49.300;8.920;2023-01-01T06:34:32;31.07;;;23.10;;
23400;SDS011;11873;49.300;8.920;2023-01-01T06:39:32;24.23;;;20.90;;
23400;SDS011;11873;49.300;8.920;2023-01-01T06:44:32;24.40;;;20.43;;
23400;SDS011;11873;49.300;8.920;2023-01-01T06:49:32;23.00;;;19.80;;
23400;SDS011;11873;49.300;8.920;2023-01-01T06:54:33;25.87;;;20.43;;
23400;SDS011;11873;49.300;8.920;2023-01-01T06:59:33;25.13;;;18.83;;
23400;SDS011;11873;49.300;8.920;2023-01-01T07:04:33;25.00;;;20.13;;
23400;SDS011;11873;49.300;8.920;2023-01-01T07:09:33;26.10;;;19.90;;
23400;SDS011;11873;49.300;8.920;2023-01-01T07:14:33;21.77;;;18.20;;
23400;SDS011;11873;49.300;8.920;2023-01-01T07:19:34;22.20;;;18.17;;
23400;SDS011;11873;49.300;8.920;2023-01-01T07:24:34;25.87;;;18.20;;
23400;SDS011;11873;49.300;8.920;2023-01-01T07:29:34;22.50;;;20.13;;
23400;SDS011;11873;49.300;8.920;2023-01-01T07:34:34;26.77;;;21.93;;
23400;SDS011;11873;49.300;8.920;2023-01-01T07:39:34;22.43;;;19.43;;
23400;SDS011;11873;49.300;8.920;2023-01-01T07:44:34;23.73;;;18.87;;
23400;SDS011;11873;49.300;8.920;2023-01-01T07:49:35;26.97;;;20.73;;
23400;SDS011;11873;49.300;8.920;2023-01-01T07:54:35;20.13;;;17.77;;
23400;SDS011;11873;49.300;8.920;2023-01-01T07:59:35;22.97;;;18.07;;
23400;SDS011;11873;49.300;8.920;2023-01-01T08:04:35;24.20;;;18.23;;
23400;SDS011;11873;49.300;8.920;2023-01-01T08:09:35;24.47;;;18.77;;
23400;SDS011;11873;49.300;8.920;2023-01-01T08:14:35;22.13;;;17.63;;
23400;SDS011;11873;49.300;8.920;2023-01-01T08:19:36;26.20;;;18.93;;
23400;SDS011;11873;49.300;8.920;2023-01-01T08:24:36;24.70;;;18.97;;
23400;SDS011;11873;49.300;8.920;2023-01-01T08:29:36;27.93;;;21.50;;
23400;SDS011;11873;49.300;8.920;2023-01-01T08:34:36;24.00;;;20.67;;
23400;SDS011;11873;49.300;8.920;2023-01-01T08:39:37;25.57;;;18.80;;
23400;SDS011;11873;49.300;8.920;2023-01-01T08:44:37;21.13;;;17.33;;
23400;SDS011;11873;49.300;8.920;2023-01-01T08:49:37;20.93;;;18.07;;
23400;SDS011;11873;49.300;8.920;2023-01-01T08:54:37;21.63;;;18.40;;
23400;SDS011;11873;49.300;8.920;2023-01-01T08:59:37;19.80;;;17.07;;
23400;SDS011;11873;49.300;8.920;2023-01-01T09:04:38;17.53;;;15.10;;
23400;SDS011;11873;49.300;8.920;2023-01-01T09:09:38;22.87;;;17.23;;
23400;SDS011;11873;49.300;8.920;2023-01-01T09:14:38;21.53;;;16.77;;
23400;SDS011;11873;49.300;8.920;2023-01-01T09:19:38;24.00;;;17.50;;
23400;SDS011;11873;49.300;8.920;2023-01-01T09:24:38;22.20;;;17.30;;
23400;SDS011;11873;49.300;8.920;2023-01-01T09:29:38;19.77;;;16.53;;
23400;SDS011;11873;49.300;8.920;2023-01-01T09:34:39;20.77;;;15.93;;
23400;SDS011;11873;49.300;8.920;2023-01-01T09:39:39;26.10;;;16.90;;
23400;SDS011;11873;49.300;8.920;2023-01-01T09:49:48;20.20;;;15.90;;
23400;SDS011;11873;49.300;8.920;2023-01-01T09:54:52;20.07;;;15.83;;
23400;SDS011;11873;49.300;8.920;2023-01-01T09:59:57;17.53;;;13.80;;
23400;SDS011;11873;49.300;8.920;2023-01-01T10:15:22;18.57;;;14.80;;
23400;SDS011;11873;49.300;8.920;2023-01-01T10:20:25;19.30;;;14.80;;
23400;SDS011;11873;49.300;8.920;2023-01-01T10:25:28;17.13;;;13.23;;
23400;SDS011;11873;49.300;8.920;2023-01-01T10:30:29;19.07;;;14.60;;
23400;SDS011;11873;49.300;8.920;2023-01-01T10:35:49;19.30;;;15.07;;
23400;SDS011;11873;49.300;8.920;2023-01-01T10:40:50;18.07;;;14.50;;
23400;SDS011;11873;49.300;8.920;2023-01-01T10:45:51;17.87;;;14.60;;
23400;SDS011;11873;49.300;8.920;2023-01-01T11:01:02;22.43;;;13.97;;
23400;SDS011;11873;49.300;8.920;2023-01-01T11:11:45;14.67;;;11.83;;
23400;SDS011;11873;49.300;8.920;2023-01-01T11:16:38;11.37;;;9.07;;
23400;SDS011;11873;49.300;8.920;2023-01-01T11:21:39;12.00;;;9.60;;
23400;SDS011;11873;49.300;8.920;2023-01-01T11:26:45;7.43;;;6.67;;
23400;SDS011;11873;49.300;8.920;2023-01-01T11:31:45;5.87;;;4.87;;
23400;SDS011;11873;49.300;8.920;2023-01-01T11:36:45;7.13;;;3.10;;
23400;SDS011;11873;49.300;8.920;2023-01-01T11:41:47;4.47;;;2.70;;
23400;SDS011;11873;49.300;8.920;2023-01-01T11:46:47;4.53;;;2.03;;
23400;SDS011;11873;49.300;8.920;2023-01-01T11:51:48;3.03;;;1.97;;
23400;SDS011;11873;49.300;8.920;2023-01-01T11:56:48;3.83;;;2.23;;
23400;SDS011;11873;49.300;8.920;2023-01-01T12:01:56;2.87;;;2.00;;
23400;SDS011;11873;49.300;8.920;2023-01-01T12:12:14;2.67;;;2.30;;
23400;SDS011;11873;49.300;8.920;2023-01-01T12:22:17;5.07;;;2.50;;
23400;SDS011;11873;49.300;8.920;2023-01-01T12:27:24;4.67;;;2.47;;
23400;SDS011;11873;49.300;8.920;2023-01-01T12:43:06;6.60;;;2.97;;
23400;SDS011;11873;49.300;8.920;2023-01-01T13:03:31;2.77;;;2.53;;
23400;SDS011;11873;49.300;8.920;2023-01-01T13:08:32;5.03;;;3.37;;
23400;SDS011;11873;49.300;8.920;2023-01-01T13:13:34;4.33;;;3.43;;
23400;SDS011;11873;49.300;8.920;2023-01-01T13:18:34;3.93;;;2.50;;
23400;SDS011;11873;49.300;8.920;2023-01-01T13:28:35;5.27;;;3.30;;
23400;SDS011;11873;49.300;8.920;2023-01-01T13:33:35;3.37;;;2.87;;
23400;SDS011;11873;49.300;8.920;2023-01-01T13:43:44;3.60;;;3.27;;
23400;SDS011;11873;49.300;8.920;2023-01-01T13:48:54;8.27;;;4.80;;
23400;SDS011;11873;49.300;8.920;2023-01-01T14:04:38;5.90;;;3.03;;
23400;SDS011;11873;49.300;8.920;2023-01-01T14:09:40;4.97;;;3.23;;
23400;SDS011;11873;49.300;8.920;2023-01-01T14:14:40;4.50;;;3.30;;
23400;SDS011;11873;49.300;8.920;2023-01-01T14:19:40;4.67;;;2.93;;
23400;SDS011;11873;49.300;8.920;2023-01-01T14:24:42;5.37;;;3.30;;
23400;SDS011;11873;49.300;8.920;2023-01-01T14:29:44;5.30;;;3.60;;
23400;SDS011;11873;49.300;8.920;2023-01-01T14:34:45;4.73;;;3.00;;
23400;SDS011;11873;49.300;8.920;2023-01-01T14:39:45;4.43;;;3.17;;
23400;SDS011;11873;49.300;8.920;2023-01-01T14:44:47;5.30;;;4.17;;
23400;SDS011;11873;49.300;8.920;2023-01-01T14:49:48;10.37;;;5.97;;
23400;SDS011;11873;49.300;8.920;2023-01-01T14:54:48;10.77;;;4.77;;
23400;SDS011;11873;49.300;8.920;2023-01-01T14:59:49;4.73;;;3.87;;
23400;SDS011;11873;49.300;8.920;2023-01-01T15:04:50;4.83;;;3.43;;
23400;SDS011;11873;49.300;8.920;2023-01-01T15:09:50;4.70;;;3.47;;
23400;SDS011;11873;49.300;8.920;2023-01-01T15:14:51;4.53;;;3.60;;
23400;SDS011;11873;49.300;8.920;2023-01-01T15:20:00;5.00;;;3.67;;
23400;SDS011;11873;49.300;8.920;2023-01-01T15:25:00;7.63;;;4.90;;
23400;SDS011;11873;49.300;8.920;2023-01-01T15:30:01;4.53;;;3.63;;
23400;SDS011;11873;49.300;8.920;2023-01-01T15:35:03;5.37;;;4.00;;
23400;SDS011;11873;49.300;8.920;2023-01-01T15:55:16;6.30;;;3.73;;
23400;SDS011;11873;49.300;8.920;2023-01-01T16:00:27;6.50;;;4.65;;
23400;SDS011;11873;49.300;8.920;2023-01-01T16:05:27;5.33;;;4.30;;
23400;SDS011;11873;49.300;8.920;2023-01-01T16:10:28;8.20;;;5.10;;
23400;SDS011;11873;49.300;8.920;2023-01-01T16:15:28;6.43;;;4.20;;
23400;SDS011;11873;49.300;8.920;2023-01-01T16:20:28;6.87;;;5.40;;
23400;SDS011;11873;49.300;8.920;2023-01-01T16:25:28;11.90;;;7.00;;
23400;SDS011;11873;49.300;8.920;2023-01-01T16:30:28;8.37;;;5.47;;
23400;SDS011;11873;49.300;8.920;2023-01-01T16:35:29;7.03;;;4.17;;
23400;SDS011;11873;49.300;8.920;2023-01-01T16:40:29;9.40;;;4.97;;
23400;SDS011;11873;49.300;8.920;2023-01-01T16:45:29;11.20;;;7.37;;
23400;SDS011;11873;49.300;8.920;2023-01-01T16:50:30;8.23;;;5.37;;
23400;SDS011;11873;49.300;8.920;2023-01-01T16:55:30;8.30;;;5.73;;
23400;SDS011;11873;49.300;8.920;2023-01-01T17:00:30;12.83;;;9.03;;
23400;SDS011;11873;49.300;8.920;2023-01-01T17:05:30;9.73;;;6.80;;
23400;SDS011;11873;49.300;8.920;2023-01-01T17:10:30;10.33;;;7.03;;
23400;SDS011;11873;49.300;8.920;2023-01-01T17:15:31;19.25;;;11.85;;
23400;SDS011;11873;49.300;8.920;2023-01-01T17:20:32;12.87;;;8.80;;
23400;SDS011;11873;49.300;8.920;2023-01-01T17:25:33;13.17;;;8.73;;
23400;SDS011;11873;49.300;8.920;2023-01-01T17:30:33;13.97;;;10.23;;
23400;SDS011;11873;49.300;8.920;2023-01-01T17:35:33;16.40;;;11.50;;
23400;SDS011;11873;49.300;8.920;2023-01-01T17:40:33;12.97;;;8.63;;
23400;SDS011;11873;49.300;8.920;2023-01-01T17:45:35;7.37;;;5.53;;
23400;SDS011;11873;49.300;8.920;2023-01-01T17:50:35;4.82;;;4.32;;
23400;SDS011;11873;49.300;8.920;2023-01-01T17:55:35;6.73;;;5.20;;
23400;SDS011;11873;49.300;8.920;2023-01-01T18:00:35;10.87;;;5.03;;
23400;SDS011;11873;49.300;8.920;2023-01-01T18:05:36;6.77;;;5.37;;
23400;SDS011;11873;49.300;8.920;2023-01-01T18:10:36;6.20;;;4.97;;
23400;SDS011;11873;49.300;8.920;2023-01-01T18:15:36;6.47;;;5.33;;
23400;SDS011;11873;49.300;8.920;2023-01-01T18:20:36;8.20;;;6.03;;
23400;SDS011;11873;49.300;8.920;2023-01-01T18:25:37;11.67;;;7.03;;
23400;SDS011;11873;49.300;8.920;2023-01-01T18:30:37;9.63;;;7.10;;
23400;SDS011;11873;49.300;8.920;2023-01-01T18:35:37;9.30;;;7.27;;
23400;SDS011;11873;49.300;8.920;2023-01-01T18:40:37;11.30;;;7.60;;
23400;SDS011;11873;49.300;8.920;2023-01-01T18:45:43;9.93;;;7.43;;
23400;SDS011;11873;49.300;8.920;2023-01-01T18:50:43;9.53;;;6.97;;
23400;SDS011;11873;49.300;8.920;2023-01-01T18:55:44;8.97;;;7.17;;
23400;SDS011;11873;49.300;8.920;2023-01-01T19:00:44;12.17;;;8.70;;
23400;SDS011;11873;49.300;8.920;2023-01-01T19:05:44;14.03;;;9.07;;
23400;SDS011;11873;49.300;8.920;2023-01-01T19:15:46;13.27;;;9.40;;
23400;SDS011;11873;49.300;8.920;2023-01-01T19:20:48;12.47;;;8.20;;
23400;SDS011;11873;49.300;8.920;2023-01-01T19:25:51;11.13;;;7.70;;
23400;SDS011;11873;49.300;8.920;2023-01-01T19:30:52;12.13;;;8.33;;
23400;SDS011;11873;49.300;8.920;2023-01-01T19:35:52;15.43;;;8.67;;
23400;SDS011;11873;49.300;8.920;2023-01-01T19:40:52;13.00;;;8.90;;
23400;SDS011;11873;49.300;8.920;2023-01-01T19:45:52;15.10;;;8.80;;
23400;SDS011;11873;49.300;8.920;2023-01-01T19:50:52;8.97;;;7.73;;
23400;SDS011;11873;49.300;8.920;2023-01-01T19:55:53;13.90;;;9.83;;
23400;SDS011;11873;49.300;8.920;2023-01-01T20:00:53;15.70;;;8.87;;
23400;SDS011;11873;49.300;8.920;2023-01-01T20:05:53;10.83;;;7.87;;
23400;SDS011;11873;49.300;8.920;2023-01-01T20:10:53;13.07;;;9.23;;
23400;SDS011;11873;49.300;8.920;2023-01-01T20:15:53;10.03;;;7.90;;
23400;SDS011;11873;49.300;8.920;2023-01-01T20:20:54;14.00;;;8.77;;
23400;SDS011;11873;49.300;8.920;2023-01-01T20:25:54;14.77;;;8.80;;
23400;SDS011;11873;49.300;8.920;2023-01-01T20:30:54;12.50;;;8.97;;
23400;SDS011;11873;49.300;8.920;2023-01-01T20:35:54;19.93;;;12.03;;
23400;SDS011;11873;49.300;8.920;2023-01-01T20:40:54;14.80;;;9.97;;
23400;SDS011;11873;49.300;8.920;2023-01-01T20:45:55;16.60;;;11.10;;
23400;SDS011;11873;49.300;8.920;2023-01-01T20:50:55;16.60;;;11.33;;
23400;SDS011;11873;49.300;8.920;2023-01-01T20:55:55;15.57;;;10.93;;
23400;SDS011;11873;49.300;8.920;2023-01-01T21:00:55;14.43;;;10.13;;
23400;SDS011;11873;49.300;8.920;2023-01-01T21:05:55;17.03;;;10.90;;
23400;SDS011;11873;49.300;8.920;2023-01-01T21:10:55;15.43;;;10.37;;
23400;SDS011;11873;49.300;8.920;2023-01-01T21:15:56;15.37;;;10.27;;
23400;SDS011;11873;49.300;8.920;2023-01-01T21:21:08;17.53;;;9.70;;
23400;SDS011;11873;49.300;8.920;2023-01-01T21:26:15;11.60;;;9.40;;
23400;SDS011;11873;49.300;8.920;2023-01-01T21:31:16;14.00;;;8.57;;
23400;SDS011;11873;49.300;8.920;2023-01-01T21:36:17;9.98;;;6.70;;
23400;SDS011;11873;49.300;8.920;2023-01-01T21:41:21;9.90;;;7.07;;
23400;SDS011;11873;49.300;8.920;2023-01-01T21:46:32;10.30;;;7.33;;
23400;SDS011;11873;49.300;8.920;2023-01-01T21:51:39;12.50;;;8.07;;
23400;SDS011;11873;49.300;8.920;2023-01-01T21:56:40;9.93;;;7.90;;
23400;SDS011;11873;49.300;8.920;2023-01-01T22:01:42;15.27;;;7.50;;
23400;SDS011;11873;49.300;8.920;2023-01-01T22:06:43;13.80;;;9.93;;
23400;SDS011;11873;49.300;8.920;2023-01-01T22:11:44;15.63;;;11.43;;
23400;SDS011;11873;49.300;8.920;2023-01-01T22:16:45;19.23;;;13.17;;
23400;SDS011;11873;49.300;8.920;2023-01-01T22:21:45;14.65;;;11.00;;
23400;SDS011;11873;49.300;8.920;2023-01-01T22:26:46;12.63;;;9.33;;
23400;SDS011;11873;49.300;8.920;2023-01-01T22:31:46;18.00;;;12.97;;
23400;SDS011;11873;49.300;8.920;2023-01-01T22:36:46;15.07;;;12.63;;
23400;SDS011;11873;49.300;8.920;2023-01-01T22:41:47;14.40;;;11.50;;
23400;SDS011;11873;49.300;8.920;2023-01-01T22:46:48;14.63;;;10.97;;
23400;SDS011;11873;49.300;8.920;2023-01-01T22:51:49;15.03;;;9.97;;
23400;SDS011;11873;49.300;8.920;2023-01-01T22:56:50;14.90;;;10.77;;
23400;SDS011;11873;49.300;8.920;2023-01-01T23:01:50;9.93;;;8.53;;
23400;SDS011;11873;49.300;8.920;2023-01-01T23:06:51;13.77;;;9.40;;
23400;SDS011;11873;49.300;8.920;2023-01-01T23:11:52;12.20;;;8.97;;
23400;SDS011;11873;49.300;8.920;2023-01-01T23:16:52;13.03;;;8.60;;
23400;SDS011;11873;49.300;8.920;2023-01-01T23:21:52;9.27;;;7.07;;
23400;SDS011;11873;49.300;8.920;2023-01-01T23:26:53;9.40;;;7.30;;
23400;SDS011;11873;49.300;8.920;2023-01-01T23:31:53;10.37;;;7.33;;
23400;SDS011;11873;49.300;8.920;2023-01-01T23:36:53;9.73;;;6.50;;
23400;SDS011;11873;49.300;8.920;2023-01-01T23:41:54;8.63;;;7.13;;
23400;SDS011;11873;49.300;8.920;2023-01-01T23:46:54;10.23;;;8.00;;
23400;SDS011;11873;49.300;8.920;2023-01-01T23:51:56;9.03;;;7.07;;
23400;SDS011;11873;49.300;8.920;2023-01-01T23:56:56;8.03;;;7.07;;
